sensor_id;sensor_type;location;lat;lon;timestamp;P1;durP1;ratioP1;P2;durP2;ratioP2
63536;SDS011;49686;51.880;5.632;2023-01-04T00:00:18;5.45;;;1.95;;
63536;SDS011;49686;51.880;5.632;2023-01-04T00:02:46;3.67;;;1.70;;
63536;SDS011;49686;51.880;5.632;2023-01-04T00:05:13;3.90;;;2.20;;
63536;SDS011;49686;51.880;5.632;2023-01-04T00:07:40;7.10;;;1.92;;
63536;SDS011;49686;51.880;5.632;2023-01-04T00:10:07;6.07;;;2.30;;
63536;SDS011;49686;51.880;5.632;2023-01-04T00:12:34;5.43;;;1.80;;
63536;SDS011;49686;51.880;5.632;2023-01-04T00:15:01;5.25;;;2.00;;
63536;SDS011;49686;51.880;5.632;2023-01-04T00:17:27;5.53;;;2.28;;
63536;SDS011;49686;51.880;5.632;2023-01-04T00:19:56;7.88;;;1.98;;
63536;SDS011;49686;51.880;5.632;2023-01-04T00:22:22;6.03;;;2.53;;
63536;SDS011;49686;51.880;5.632;2023-01-04T00:24:49;7.57;;;3.13;;
63536;SDS011;49686;51.880;5.632;2023-01-04T00:27:16;5.72;;;1.92;;
63536;SDS011;49686;51.880;5.632;2023-01-04T00:29:43;7.88;;;2.55;;
63536;SDS011;49686;51.880;5.632;2023-01-04T00:32:10;10.60;;;3.20;;
63536;SDS011;49686;51.880;5.632;2023-01-04T00:34:36;6.90;;;2.20;;
63536;SDS011;49686;51.880;5.632;2023-01-04T00:37:04;3.10;;;1.88;;
63536;SDS011;49686;51.880;5.632;2023-01-04T00:39:31;8.40;;;2.60;;
63536;SDS011;49686;51.880;5.632;2023-01-04T00:41:58;8.80;;;2.58;;
63536;SDS011;49686;51.880;5.632;2023-01-04T00:44:27;5.53;;;3.13;;
63536;SDS011;49686;51.880;5.632;2023-01-04T00:46:55;9.82;;;2.97;;
63536;SDS011;49686;51.880;5.632;2023-01-04T00:49:22;6.72;;;2.28;;
63536;SDS011;49686;51.880;5.632;2023-01-04T00:51:50;8.43;;;2.60;;
63536;SDS011;49686;51.880;5.632;2023-01-04T00:54:18;3.63;;;3.22;;
63536;SDS011;49686;51.880;5.632;2023-01-04T00:56:45;7.45;;;2.53;;
63536;SDS011;49686;51.880;5.632;2023-01-04T00:59:13;10.35;;;3.78;;
63536;SDS011;49686;51.880;5.632;2023-01-04T01:01:42;5.60;;;2.90;;
63536;SDS011;49686;51.880;5.632;2023-01-04T01:04:11;7.50;;;2.83;;
63536;SDS011;49686;51.880;5.632;2023-01-04T01:06:42;7.05;;;2.60;;
63536;SDS011;49686;51.880;5.632;2023-01-04T01:09:09;4.90;;;2.38;;
63536;SDS011;49686;51.880;5.632;2023-01-04T01:11:37;6.78;;;2.70;;
63536;SDS011;49686;51.880;5.632;2023-01-04T01:14:05;5.63;;;2.85;;
63536;SDS011;49686;51.880;5.632;2023-01-04T01:16:32;4.60;;;2.15;;
63536;SDS011;49686;51.880;5.632;2023-01-04T01:19:20;4.05;;;1.65;;
63536;SDS011;49686;51.880;5.632;2023-01-04T01:21:47;4.05;;;2.30;;
63536;SDS011;49686;51.880;5.632;2023-01-04T01:24:15;3.80;;;1.95;;
63536;SDS011;49686;51.880;5.632;2023-01-04T01:26:44;4.53;;;2.28;;
63536;SDS011;49686;51.880;5.632;2023-01-04T01:29:11;5.75;;;2.55;;
63536;SDS011;49686;51.880;5.632;2023-01-04T01:31:39;4.45;;;2.00;;
63536;SDS011;49686;51.880;5.632;2023-01-04T01:34:07;5.87;;;1.60;;
63536;SDS011;49686;51.880;5.632;2023-01-04T01:36:34;4.72;;;2.53;;
63536;SDS011;49686;51.880;5.632;2023-01-04T01:39:01;6.72;;;2.55;;
63536;SDS011;49686;51.880;5.632;2023-01-04T01:41:29;6.43;;;2.20;;
63536;SDS011;49686;51.880;5.632;2023-01-04T01:43:59;2.67;;;1.83;;
63536;SDS011;49686;51.880;5.632;2023-01-04T01:46:28;2.53;;;1.55;;
63536;SDS011;49686;51.880;5.632;2023-01-04T01:49:00;3.90;;;1.95;;
63536;SDS011;49686;51.880;5.632;2023-01-04T01:51:29;7.47;;;1.88;;
63536;SDS011;49686;51.880;5.632;2023-01-04T01:53:58;3.92;;;1.95;;
63536;SDS011;49686;51.880;5.632;2023-01-04T01:56:29;4.38;;;1.60;;
63536;SDS011;49686;51.880;5.632;2023-01-04T01:59:03;3.83;;;1.65;;
63536;SDS011;49686;51.880;5.632;2023-01-04T02:01:31;3.83;;;1.70;;
63536;SDS011;49686;51.880;5.632;2023-01-04T02:03:58;2.88;;;1.50;;
63536;SDS011;49686;51.880;5.632;2023-01-04T02:06:28;2.20;;;1.80;;
63536;SDS011;49686;51.880;5.632;2023-01-04T02:08:58;4.63;;;1.52;;
63536;SDS011;49686;51.880;5.632;2023-01-04T02:11:26;1.52;;;1.15;;
63536;SDS011;49686;51.880;5.632;2023-01-04T02:13:53;3.97;;;1.80;;
63536;SDS011;49686;51.880;5.632;2023-01-04T02:18:57;1.83;;;1.58;;
63536;SDS011;49686;51.880;5.632;2023-01-04T02:21:33;3.25;;;2.08;;
63536;SDS011;49686;51.880;5.632;2023-01-04T02:24:19;2.90;;;1.60;;
63536;SDS011;49686;51.880;5.632;2023-01-04T02:27:12;3.88;;;2.78;;
63536;SDS011;49686;51.880;5.632;2023-01-04T02:33:16;1.85;;;1.50;;
63536;SDS011;49686;51.880;5.632;2023-01-04T02:35:56;5.22;;;1.80;;
63536;SDS011;49686;51.880;5.632;2023-01-04T02:38:30;3.17;;;1.70;;
63536;SDS011;49686;51.880;5.632;2023-01-04T02:41:07;1.73;;;1.55;;
63536;SDS011;49686;51.880;5.632;2023-01-04T02:43:43;2.90;;;1.48;;
63536;SDS011;49686;51.880;5.632;2023-01-04T02:46:18;1.58;;;1.30;;
63536;SDS011;49686;51.880;5.632;2023-01-04T02:48:52;3.25;;;1.65;;
63536;SDS011;49686;51.880;5.632;2023-01-04T02:51:23;2.40;;;1.67;;
63536;SDS011;49686;51.880;5.632;2023-01-04T02:53:53;2.63;;;1.30;;
63536;SDS011;49686;51.880;5.632;2023-01-04T02:56:23;2.88;;;1.60;;
63536;SDS011;49686;51.880;5.632;2023-01-04T02:59:01;4.03;;;2.75;;
63536;SDS011;49686;51.880;5.632;2023-01-04T03:01:38;1.37;;;1.10;;
63536;SDS011;49686;51.880;5.632;2023-01-04T03:04:13;2.45;;;1.30;;
63536;SDS011;49686;51.880;5.632;2023-01-04T03:06:50;1.45;;;1.25;;
63536;SDS011;49686;51.880;5.632;2023-01-04T03:09:25;3.38;;;1.60;;
63536;SDS011;49686;51.880;5.632;2023-01-04T03:11:55;2.65;;;2.03;;
63536;SDS011;49686;51.880;5.632;2023-01-04T03:14:25;2.15;;;1.35;;
63536;SDS011;49686;51.880;5.632;2023-01-04T03:16:58;1.38;;;1.27;;
63536;SDS011;49686;51.880;5.632;2023-01-04T03:19:28;1.73;;;1.30;;
63536;SDS011;49686;51.880;5.632;2023-01-04T03:21:58;1.58;;;1.30;;
63536;SDS011;49686;51.880;5.632;2023-01-04T03:24:27;3.10;;;1.60;;
63536;SDS011;49686;51.880;5.632;2023-01-04T03:26:55;2.67;;;1.38;;
63536;SDS011;49686;51.880;5.632;2023-01-04T03:29:28;2.05;;;1.80;;
63536;SDS011;49686;51.880;5.632;2023-01-04T03:32:01;1.00;;;1.00;;
63536;SDS011;49686;51.880;5.632;2023-01-04T03:34:33;2.85;;;2.55;;
63536;SDS011;49686;51.880;5.632;2023-01-04T03:37:04;0.90;;;0.90;;
63536;SDS011;49686;51.880;5.632;2023-01-04T03:39:42;1.60;;;1.50;;
63536;SDS011;49686;51.880;5.632;2023-01-04T03:42:19;1.33;;;1.17;;
63536;SDS011;49686;51.880;5.632;2023-01-04T03:44:53;1.45;;;1.35;;
63536;SDS011;49686;51.880;5.632;2023-01-04T03:47:36;2.70;;;2.17;;
63536;SDS011;49686;51.880;5.632;2023-01-04T03:50:12;1.55;;;1.20;;
63536;SDS011;49686;51.880;5.632;2023-01-04T03:52:44;2.53;;;2.33;;
63536;SDS011;49686;51.880;5.632;2023-01-04T03:55:13;1.85;;;1.65;;
63536;SDS011;49686;51.880;5.632;2023-01-04T03:57:41;2.63;;;2.28;;
63536;SDS011;49686;51.880;5.632;2023-01-04T04:00:10;3.00;;;2.40;;
63536;SDS011;49686;51.880;5.632;2023-01-04T04:02:38;1.85;;;1.45;;
63536;SDS011;49686;51.880;5.632;2023-01-04T04:05:06;1.38;;;1.27;;
63536;SDS011;49686;51.880;5.632;2023-01-04T04:07:35;2.13;;;1.63;;
63536;SDS011;49686;51.880;5.632;2023-01-04T04:10:02;2.80;;;2.23;;
63536;SDS011;49686;51.880;5.632;2023-01-04T04:12:29;2.90;;;2.60;;
63536;SDS011;49686;51.880;5.632;2023-01-04T04:14:56;3.28;;;2.30;;
63536;SDS011;49686;51.880;5.632;2023-01-04T04:17:22;3.42;;;2.47;;
63536;SDS011;49686;51.880;5.632;2023-01-04T04:19:49;2.47;;;1.92;;
63536;SDS011;49686;51.880;5.632;2023-01-04T04:22:17;2.83;;;2.03;;
63536;SDS011;49686;51.880;5.632;2023-01-04T04:24:45;3.17;;;2.88;;
63536;SDS011;49686;51.880;5.632;2023-01-04T04:27:12;3.47;;;2.85;;
63536;SDS011;49686;51.880;5.632;2023-01-04T04:29:39;4.07;;;2.13;;
63536;SDS011;49686;51.880;5.632;2023-01-04T04:32:05;3.88;;;2.65;;
63536;SDS011;49686;51.880;5.632;2023-01-04T04:34:32;2.13;;;1.70;;
63536;SDS011;49686;51.880;5.632;2023-01-04T04:36:59;2.60;;;2.35;;
63536;SDS011;49686;51.880;5.632;2023-01-04T04:39:26;3.53;;;2.97;;
63536;SDS011;49686;51.880;5.632;2023-01-04T04:41:54;4.85;;;3.00;;
63536;SDS011;49686;51.880;5.632;2023-01-04T04:44:21;2.57;;;2.30;;
63536;SDS011;49686;51.880;5.632;2023-01-04T04:46:48;2.70;;;2.50;;
63536;SDS011;49686;51.880;5.632;2023-01-04T04:49:15;3.60;;;2.40;;
63536;SDS011;49686;51.880;5.632;2023-01-04T04:51:46;3.85;;;2.42;;
63536;SDS011;49686;51.880;5.632;2023-01-04T04:54:13;2.47;;;2.28;;
63536;SDS011;49686;51.880;5.632;2023-01-04T04:56:41;2.20;;;2.05;;
63536;SDS011;49686;51.880;5.632;2023-01-04T04:59:11;2.83;;;2.17;;
63536;SDS011;49686;51.880;5.632;2023-01-04T05:01:38;3.63;;;2.83;;
63536;SDS011;49686;51.880;5.632;2023-01-04T05:04:05;4.93;;;2.78;;
63536;SDS011;49686;51.880;5.632;2023-01-04T05:06:32;3.50;;;2.15;;
63536;SDS011;49686;51.880;5.632;2023-01-04T05:08:59;2.60;;;2.20;;
63536;SDS011;49686;51.880;5.632;2023-01-04T05:11:26;4.22;;;2.58;;
63536;SDS011;49686;51.880;5.632;2023-01-04T05:13:52;4.20;;;2.50;;
63536;SDS011;49686;51.880;5.632;2023-01-04T05:16:20;2.42;;;2.10;;
63536;SDS011;49686;51.880;5.632;2023-01-04T05:18:47;3.10;;;2.35;;
63536;SDS011;49686;51.880;5.632;2023-01-04T05:21:14;4.05;;;2.95;;
63536;SDS011;49686;51.880;5.632;2023-01-04T05:23:45;3.22;;;2.70;;
63536;SDS011;49686;51.880;5.632;2023-01-04T05:26:12;5.13;;;3.00;;
63536;SDS011;49686;51.880;5.632;2023-01-04T05:28:39;4.00;;;3.30;;
63536;SDS011;49686;51.880;5.632;2023-01-04T05:31:06;3.75;;;2.30;;
63536;SDS011;49686;51.880;5.632;2023-01-04T05:33:34;5.70;;;3.65;;
63536;SDS011;49686;51.880;5.632;2023-01-04T05:36:02;5.77;;;2.57;;
63536;SDS011;49686;51.880;5.632;2023-01-04T05:38:29;5.68;;;3.63;;
63536;SDS011;49686;51.880;5.632;2023-01-04T05:40:56;4.72;;;2.60;;
63536;SDS011;49686;51.880;5.632;2023-01-04T05:43:23;3.17;;;2.53;;
63536;SDS011;49686;51.880;5.632;2023-01-04T05:45:51;7.03;;;3.45;;
63536;SDS011;49686;51.880;5.632;2023-01-04T05:50:48;2.25;;;1.85;;
63536;SDS011;49686;51.880;5.632;2023-01-04T05:53:17;4.35;;;2.55;;
63536;SDS011;49686;51.880;5.632;2023-01-04T05:55:44;4.57;;;2.20;;
63536;SDS011;49686;51.880;5.632;2023-01-04T05:58:13;2.63;;;2.03;;
63536;SDS011;49686;51.880;5.632;2023-01-04T06:00:40;3.92;;;2.55;;
63536;SDS011;49686;51.880;5.632;2023-01-04T06:03:11;3.08;;;1.98;;
63536;SDS011;49686;51.880;5.632;2023-01-04T06:05:38;2.60;;;2.40;;
63536;SDS011;49686;51.880;5.632;2023-01-04T06:08:06;2.70;;;1.77;;
63536;SDS011;49686;51.880;5.632;2023-01-04T06:10:33;3.55;;;2.35;;
63536;SDS011;49686;51.880;5.632;2023-01-04T06:13:00;5.63;;;3.45;;
63536;SDS011;49686;51.880;5.632;2023-01-04T06:15:26;2.58;;;2.00;;
63536;SDS011;49686;51.880;5.632;2023-01-04T06:17:53;2.60;;;2.38;;
63536;SDS011;49686;51.880;5.632;2023-01-04T06:20:20;5.50;;;3.00;;
63536;SDS011;49686;51.880;5.632;2023-01-04T06:22:47;5.18;;;2.70;;
63536;SDS011;49686;51.880;5.632;2023-01-04T06:25:15;2.38;;;1.38;;
63536;SDS011;49686;51.880;5.632;2023-01-04T06:27:43;2.72;;;1.80;;
63536;SDS011;49686;51.880;5.632;2023-01-04T06:30:09;3.40;;;2.28;;
63536;SDS011;49686;51.880;5.632;2023-01-04T06:32:36;2.40;;;2.20;;
63536;SDS011;49686;51.880;5.632;2023-01-04T06:35:04;1.33;;;1.23;;
63536;SDS011;49686;51.880;5.632;2023-01-04T06:37:31;1.83;;;1.73;;
63536;SDS011;49686;51.880;5.632;2023-01-04T06:39:58;1.55;;;1.45;;
63536;SDS011;49686;51.880;5.632;2023-01-04T06:42:26;2.92;;;2.25;;
63536;SDS011;49686;51.880;5.632;2023-01-04T06:44:53;4.87;;;2.30;;
63536;SDS011;49686;51.880;5.632;2023-01-04T06:47:19;3.00;;;2.00;;
63536;SDS011;49686;51.880;5.632;2023-01-04T06:49:49;2.72;;;2.10;;
63536;SDS011;49686;51.880;5.632;2023-01-04T06:52:17;2.97;;;1.85;;
63536;SDS011;49686;51.880;5.632;2023-01-04T06:54:44;1.38;;;1.27;;
63536;SDS011;49686;51.880;5.632;2023-01-04T06:57:11;3.00;;;1.85;;
63536;SDS011;49686;51.880;5.632;2023-01-04T06:59:39;4.28;;;1.67;;
63536;SDS011;49686;51.880;5.632;2023-01-04T07:02:06;2.27;;;1.60;;
63536;SDS011;49686;51.880;5.632;2023-01-04T07:04:33;1.83;;;1.52;;
63536;SDS011;49686;51.880;5.632;2023-01-04T07:07:00;2.38;;;1.63;;
63536;SDS011;49686;51.880;5.632;2023-01-04T07:09:27;3.58;;;2.30;;
63536;SDS011;49686;51.880;5.632;2023-01-04T07:11:54;2.35;;;1.70;;
63536;SDS011;49686;51.880;5.632;2023-01-04T07:14:21;5.35;;;1.90;;
63536;SDS011;49686;51.880;5.632;2023-01-04T07:16:49;2.80;;;1.90;;
63536;SDS011;49686;51.880;5.632;2023-01-04T07:19:16;2.58;;;1.63;;
63536;SDS011;49686;51.880;5.632;2023-01-04T07:21:43;3.30;;;2.58;;
63536;SDS011;49686;51.880;5.632;2023-01-04T07:24:10;4.30;;;1.95;;
63536;SDS011;49686;51.880;5.632;2023-01-04T07:26:37;3.78;;;2.10;;
63536;SDS011;49686;51.880;5.632;2023-01-04T07:29:04;2.72;;;1.80;;
63536;SDS011;49686;51.880;5.632;2023-01-04T07:31:30;3.75;;;1.77;;
63536;SDS011;49686;51.880;5.632;2023-01-04T07:33:58;5.47;;;2.92;;
63536;SDS011;49686;51.880;5.632;2023-01-04T07:36:25;2.63;;;2.00;;
63536;SDS011;49686;51.880;5.632;2023-01-04T07:38:52;2.83;;;1.67;;
63536;SDS011;49686;51.880;5.632;2023-01-04T07:41:21;3.42;;;1.90;;
63536;SDS011;49686;51.880;5.632;2023-01-04T07:43:47;2.88;;;1.55;;
63536;SDS011;49686;51.880;5.632;2023-01-04T07:46:14;3.60;;;2.53;;
63536;SDS011;49686;51.880;5.632;2023-01-04T07:48:41;4.50;;;1.73;;
63536;SDS011;49686;51.880;5.632;2023-01-04T07:51:10;1.25;;;1.02;;
63536;SDS011;49686;51.880;5.632;2023-01-04T07:53:37;2.10;;;1.43;;
63536;SDS011;49686;51.880;5.632;2023-01-04T07:56:04;1.65;;;1.52;;
63536;SDS011;49686;51.880;5.632;2023-01-04T07:58:40;1.60;;;1.33;;
63536;SDS011;49686;51.880;5.632;2023-01-04T08:01:07;3.55;;;1.85;;
63536;SDS011;49686;51.880;5.632;2023-01-04T08:03:36;3.08;;;1.75;;
63536;SDS011;49686;51.880;5.632;2023-01-04T08:06:03;4.35;;;2.08;;
63536;SDS011;49686;51.880;5.632;2023-01-04T08:08:32;3.58;;;1.67;;
63536;SDS011;49686;51.880;5.632;2023-01-04T08:10:59;3.22;;;1.48;;
63536;SDS011;49686;51.880;5.632;2023-01-04T08:13:26;2.58;;;1.33;;
63536;SDS011;49686;51.880;5.632;2023-01-04T08:15:54;2.88;;;1.52;;
63536;SDS011;49686;51.880;5.632;2023-01-04T08:18:21;2.77;;;1.23;;
63536;SDS011;49686;51.880;5.632;2023-01-04T08:20:48;3.20;;;1.65;;
63536;SDS011;49686;51.880;5.632;2023-01-04T08:23:23;2.25;;;1.25;;
63536;SDS011;49686;51.880;5.632;2023-01-04T08:25:51;2.67;;;1.50;;
63536;SDS011;49686;51.880;5.632;2023-01-04T08:28:18;2.50;;;1.47;;
63536;SDS011;49686;51.880;5.632;2023-01-04T08:30:45;2.70;;;1.50;;
63536;SDS011;49686;51.880;5.632;2023-01-04T08:33:12;2.00;;;1.15;;
63536;SDS011;49686;51.880;5.632;2023-01-04T08:35:39;2.03;;;1.55;;
63536;SDS011;49686;51.880;5.632;2023-01-04T08:38:06;2.08;;;1.50;;
63536;SDS011;49686;51.880;5.632;2023-01-04T08:40:54;1.52;;;1.42;;
63536;SDS011;49686;51.880;5.632;2023-01-04T08:43:26;2.20;;;1.38;;
63536;SDS011;49686;51.880;5.632;2023-01-04T08:45:53;3.83;;;1.98;;
63536;SDS011;49686;51.880;5.632;2023-01-04T08:48:20;3.25;;;1.88;;
63536;SDS011;49686;51.880;5.632;2023-01-04T08:50:50;3.08;;;1.50;;
63536;SDS011;49686;51.880;5.632;2023-01-04T08:53:16;2.22;;;1.48;;
63536;SDS011;49686;51.880;5.632;2023-01-04T08:55:47;3.63;;;2.78;;
63536;SDS011;49686;51.880;5.632;2023-01-04T08:58:16;2.80;;;1.45;;
63536;SDS011;49686;51.880;5.632;2023-01-04T09:00:44;1.92;;;1.30;;
63536;SDS011;49686;51.880;5.632;2023-01-04T09:03:11;2.65;;;1.50;;
63536;SDS011;49686;51.880;5.632;2023-01-04T09:05:38;3.67;;;2.10;;
63536;SDS011;49686;51.880;5.632;2023-01-04T09:08:05;2.13;;;1.40;;
63536;SDS011;49686;51.880;5.632;2023-01-04T09:10:32;4.72;;;1.80;;
63536;SDS011;49686;51.880;5.632;2023-01-04T09:13:01;6.07;;;2.33;;
63536;SDS011;49686;51.880;5.632;2023-01-04T09:15:30;2.40;;;1.70;;
63536;SDS011;49686;51.880;5.632;2023-01-04T09:17:56;6.53;;;2.67;;
63536;SDS011;49686;51.880;5.632;2023-01-04T09:20:44;5.15;;;1.85;;
63536;SDS011;49686;51.880;5.632;2023-01-04T09:23:11;3.55;;;1.90;;
63536;SDS011;49686;51.880;5.632;2023-01-04T09:25:38;4.18;;;2.25;;
63536;SDS011;49686;51.880;5.632;2023-01-04T09:28:05;4.10;;;1.80;;
63536;SDS011;49686;51.880;5.632;2023-01-04T09:30:33;3.22;;;1.80;;
63536;SDS011;49686;51.880;5.632;2023-01-04T09:33:00;3.00;;;1.50;;
63536;SDS011;49686;51.880;5.632;2023-01-04T09:35:27;3.47;;;1.80;;
63536;SDS011;49686;51.880;5.632;2023-01-04T09:37:54;4.65;;;1.65;;
63536;SDS011;49686;51.880;5.632;2023-01-04T09:40:21;4.35;;;2.33;;
63536;SDS011;49686;51.880;5.632;2023-01-04T09:42:53;5.97;;;2.60;;
63536;SDS011;49686;51.880;5.632;2023-01-04T09:45:42;5.50;;;2.67;;
63536;SDS011;49686;51.880;5.632;2023-01-04T09:50:40;5.43;;;2.40;;
63536;SDS011;49686;51.880;5.632;2023-01-04T09:53:15;5.28;;;2.33;;
63536;SDS011;49686;51.880;5.632;2023-01-04T09:55:47;2.22;;;1.67;;
63536;SDS011;49686;51.880;5.632;2023-01-04T09:58:19;4.45;;;2.15;;
63536;SDS011;49686;51.880;5.632;2023-01-04T10:00:54;4.25;;;2.05;;
63536;SDS011;49686;51.880;5.632;2023-01-04T10:03:27;3.03;;;1.85;;
63536;SDS011;49686;51.880;5.632;2023-01-04T10:05:57;5.50;;;2.10;;
63536;SDS011;49686;51.880;5.632;2023-01-04T10:08:26;4.10;;;2.40;;
63536;SDS011;49686;51.880;5.632;2023-01-04T10:10:55;3.95;;;2.00;;
63536;SDS011;49686;51.880;5.632;2023-01-04T10:13:36;4.03;;;2.10;;
63536;SDS011;49686;51.880;5.632;2023-01-04T10:16:22;3.30;;;2.05;;
63536;SDS011;49686;51.880;5.632;2023-01-04T10:19:25;2.72;;;1.55;;
63536;SDS011;49686;51.880;5.632;2023-01-04T10:22:24;3.80;;;1.48;;
63536;SDS011;49686;51.880;5.632;2023-01-04T10:24:57;4.82;;;2.20;;
63536;SDS011;49686;51.880;5.632;2023-01-04T10:27:33;3.10;;;1.92;;
63536;SDS011;49686;51.880;5.632;2023-01-04T10:30:15;4.93;;;2.80;;
63536;SDS011;49686;51.880;5.632;2023-01-04T10:32:53;1.65;;;1.48;;
63536;SDS011;49686;51.880;5.632;2023-01-04T10:35:25;2.97;;;2.20;;
63536;SDS011;49686;51.880;5.632;2023-01-04T10:37:53;3.65;;;2.10;;
63536;SDS011;49686;51.880;5.632;2023-01-04T10:40:23;7.28;;;2.42;;
63536;SDS011;49686;51.880;5.632;2023-01-04T10:45:27;5.50;;;2.67;;
63536;SDS011;49686;51.880;5.632;2023-01-04T10:48:03;4.72;;;2.90;;
63536;SDS011;49686;51.880;5.632;2023-01-04T10:50:38;2.10;;;1.80;;
63536;SDS011;49686;51.880;5.632;2023-01-04T10:53:14;4.13;;;2.53;;
63536;SDS011;49686;51.880;5.632;2023-01-04T10:55:45;3.47;;;2.95;;
63536;SDS011;49686;51.880;5.632;2023-01-04T10:58:36;7.00;;;2.60;;
63536;SDS011;49686;51.880;5.632;2023-01-04T11:01:10;4.50;;;3.08;;
63536;SDS011;49686;51.880;5.632;2023-01-04T11:03:43;2.88;;;2.40;;
63536;SDS011;49686;51.880;5.632;2023-01-04T11:06:17;4.53;;;3.13;;
63536;SDS011;49686;51.880;5.632;2023-01-04T11:08:48;4.47;;;2.20;;
63536;SDS011;49686;51.880;5.632;2023-01-04T11:11:19;3.50;;;2.30;;
63536;SDS011;49686;51.880;5.632;2023-01-04T11:13:52;3.53;;;1.85;;
63536;SDS011;49686;51.880;5.632;2023-01-04T11:16:19;1.60;;;1.35;;
63536;SDS011;49686;51.880;5.632;2023-01-04T11:18:47;2.28;;;1.88;;
63536;SDS011;49686;51.880;5.632;2023-01-04T11:21:16;2.38;;;1.42;;
63536;SDS011;49686;51.880;5.632;2023-01-04T11:23:46;2.20;;;1.80;;
63536;SDS011;49686;51.880;5.632;2023-01-04T11:26:14;2.08;;;1.27;;
63536;SDS011;49686;51.880;5.632;2023-01-04T11:28:46;2.88;;;2.40;;
63536;SDS011;49686;51.880;5.632;2023-01-04T11:31:20;2.75;;;2.00;;
63536;SDS011;49686;51.880;5.632;2023-01-04T11:33:52;2.08;;;1.88;;
63536;SDS011;49686;51.880;5.632;2023-01-04T11:36:34;1.80;;;1.70;;
63536;SDS011;49686;51.880;5.632;2023-01-04T11:39:02;3.08;;;2.20;;
63536;SDS011;49686;51.880;5.632;2023-01-04T11:41:31;4.00;;;2.10;;
63536;SDS011;49686;51.880;5.632;2023-01-04T11:43:59;1.85;;;1.58;;
63536;SDS011;49686;51.880;5.632;2023-01-04T11:48:55;2.08;;;1.65;;
63536;SDS011;49686;51.880;5.632;2023-01-04T11:51:33;2.75;;;2.00;;
63536;SDS011;49686;51.880;5.632;2023-01-04T11:54:03;1.52;;;1.30;;
63536;SDS011;49686;51.880;5.632;2023-01-04T11:59:11;1.08;;;1.08;;
63536;SDS011;49686;51.880;5.632;2023-01-04T12:01:48;1.17;;;1.17;;
63536;SDS011;49686;51.880;5.632;2023-01-04T12:04:19;3.40;;;3.17;;
63536;SDS011;49686;51.880;5.632;2023-01-04T12:06:49;2.25;;;1.80;;
63536;SDS011;49686;51.880;5.632;2023-01-04T12:09:19;3.05;;;2.78;;
63536;SDS011;49686;51.880;5.632;2023-01-04T12:11:47;3.03;;;2.83;;
63536;SDS011;49686;51.880;5.632;2023-01-04T12:14:20;1.52;;;1.42;;
63536;SDS011;49686;51.880;5.632;2023-01-04T12:16:53;2.25;;;2.05;;
63536;SDS011;49686;51.880;5.632;2023-01-04T12:19:26;2.25;;;2.08;;
63536;SDS011;49686;51.880;5.632;2023-01-04T12:21:54;2.40;;;2.20;;
63536;SDS011;49686;51.880;5.632;2023-01-04T12:24:23;5.80;;;3.30;;
63536;SDS011;49686;51.880;5.632;2023-01-04T12:26:52;3.10;;;2.08;;
63536;SDS011;49686;51.880;5.632;2023-01-04T12:29:38;2.30;;;1.67;;
63536;SDS011;49686;51.880;5.632;2023-01-04T12:38:09;3.85;;;1.25;;
63536;SDS011;49686;51.880;5.632;2023-01-04T12:40:52;2.92;;;1.60;;
63536;SDS011;49686;51.880;5.632;2023-01-04T12:43:23;3.92;;;1.88;;
63536;SDS011;49686;51.880;5.632;2023-01-04T12:48:51;2.55;;;1.48;;
63536;SDS011;49686;51.880;5.632;2023-01-04T12:51:19;2.30;;;1.67;;
63536;SDS011;49686;51.880;5.632;2023-01-04T12:53:59;4.45;;;2.55;;
63536;SDS011;49686;51.880;5.632;2023-01-04T12:59:35;2.60;;;1.50;;
63536;SDS011;49686;51.880;5.632;2023-01-04T13:02:08;4.32;;;1.83;;
63536;SDS011;49686;51.880;5.632;2023-01-04T13:04:41;3.88;;;1.40;;
63536;SDS011;49686;51.880;5.632;2023-01-04T13:07:09;3.38;;;1.90;;
63536;SDS011;49686;51.880;5.632;2023-01-04T13:09:45;2.17;;;1.50;;
63536;SDS011;49686;51.880;5.632;2023-01-04T13:15:10;4.83;;;2.40;;
63536;SDS011;49686;51.880;5.632;2023-01-04T13:17:45;3.13;;;1.90;;
63536;SDS011;49686;51.880;5.632;2023-01-04T13:20:14;3.53;;;1.70;;
63536;SDS011;49686;51.880;5.632;2023-01-04T13:22:44;4.38;;;2.45;;
63536;SDS011;49686;51.880;5.632;2023-01-04T13:25:16;4.43;;;2.00;;
63536;SDS011;49686;51.880;5.632;2023-01-04T13:27:58;3.60;;;1.80;;
63536;SDS011;49686;51.880;5.632;2023-01-04T13:30:27;4.88;;;2.10;;
63536;SDS011;49686;51.880;5.632;2023-01-04T13:32:54;3.30;;;2.33;;
63536;SDS011;49686;51.880;5.632;2023-01-04T13:35:41;3.40;;;1.85;;
63536;SDS011;49686;51.880;5.632;2023-01-04T13:38:10;2.45;;;1.40;;
63536;SDS011;49686;51.880;5.632;2023-01-04T13:40:43;3.03;;;1.75;;
63536;SDS011;49686;51.880;5.632;2023-01-04T13:43:31;3.50;;;1.83;;
63536;SDS011;49686;51.880;5.632;2023-01-04T13:46:12;2.95;;;1.83;;
63536;SDS011;49686;51.880;5.632;2023-01-04T13:48:41;4.32;;;1.90;;
63536;SDS011;49686;51.880;5.632;2023-01-04T13:56:16;4.35;;;1.55;;
63536;SDS011;49686;51.880;5.632;2023-01-04T13:58:45;3.58;;;1.52;;
63536;SDS011;49686;51.880;5.632;2023-01-04T14:01:13;5.00;;;1.50;;
63536;SDS011;49686;51.880;5.632;2023-01-04T14:03:46;4.65;;;1.70;;
63536;SDS011;49686;51.880;5.632;2023-01-04T14:06:19;3.70;;;1.73;;
63536;SDS011;49686;51.880;5.632;2023-01-04T14:08:50;5.47;;;1.70;;
63536;SDS011;49686;51.880;5.632;2023-01-04T14:11:26;3.40;;;1.23;;
63536;SDS011;49686;51.880;5.632;2023-01-04T14:13:54;5.88;;;1.63;;
63536;SDS011;49686;51.880;5.632;2023-01-04T14:16:21;4.60;;;2.17;;
63536;SDS011;49686;51.880;5.632;2023-01-04T14:18:47;3.72;;;1.60;;
63536;SDS011;49686;51.880;5.632;2023-01-04T14:21:15;5.13;;;1.38;;
63536;SDS011;49686;51.880;5.632;2023-01-04T14:23:43;5.43;;;1.65;;
63536;SDS011;49686;51.880;5.632;2023-01-04T14:28:56;3.83;;;1.40;;
63536;SDS011;49686;51.880;5.632;2023-01-04T14:31:27;2.55;;;1.27;;
63536;SDS011;49686;51.880;5.632;2023-01-04T14:33:58;4.28;;;1.67;;
63536;SDS011;49686;51.880;5.632;2023-01-04T14:36:31;4.47;;;1.65;;
63536;SDS011;49686;51.880;5.632;2023-01-04T14:38:59;5.53;;;2.05;;
63536;SDS011;49686;51.880;5.632;2023-01-04T14:41:36;4.70;;;1.77;;
63536;SDS011;49686;51.880;5.632;2023-01-04T14:44:08;4.75;;;1.42;;
63536;SDS011;49686;51.880;5.632;2023-01-04T14:46:37;4.78;;;1.58;;
63536;SDS011;49686;51.880;5.632;2023-01-04T14:49:04;5.55;;;2.40;;
63536;SDS011;49686;51.880;5.632;2023-01-04T14:51:32;6.88;;;1.92;;
63536;SDS011;49686;51.880;5.632;2023-01-04T14:53:59;6.05;;;2.22;;
63536;SDS011;49686;51.880;5.632;2023-01-04T14:56:26;5.68;;;2.13;;
63536;SDS011;49686;51.880;5.632;2023-01-04T14:58:54;4.18;;;1.73;;
63536;SDS011;49686;51.880;5.632;2023-01-04T15:01:21;5.77;;;1.80;;
63536;SDS011;49686;51.880;5.632;2023-01-04T15:03:48;5.15;;;2.10;;
63536;SDS011;49686;51.880;5.632;2023-01-04T15:06:15;7.82;;;2.38;;
63536;SDS011;49686;51.880;5.632;2023-01-04T15:08:42;6.88;;;2.40;;
63536;SDS011;49686;51.880;5.632;2023-01-04T15:11:09;6.50;;;2.00;;
63536;SDS011;49686;51.880;5.632;2023-01-04T15:13:37;5.30;;;1.92;;
63536;SDS011;49686;51.880;5.632;2023-01-04T15:16:08;8.35;;;2.20;;
63536;SDS011;49686;51.880;5.632;2023-01-04T15:18:37;9.20;;;2.08;;
63536;SDS011;49686;51.880;5.632;2023-01-04T15:21:05;5.85;;;2.20;;
63536;SDS011;49686;51.880;5.632;2023-01-04T15:23:32;8.80;;;2.20;;
63536;SDS011;49686;51.880;5.632;2023-01-04T15:25:58;12.55;;;2.15;;
63536;SDS011;49686;51.880;5.632;2023-01-04T15:28:25;11.65;;;2.40;;
63536;SDS011;49686;51.880;5.632;2023-01-04T15:30:52;10.90;;;2.22;;
63536;SDS011;49686;51.880;5.632;2023-01-04T15:33:20;12.38;;;2.33;;
63536;SDS011;49686;51.880;5.632;2023-01-04T15:35:47;9.05;;;3.28;;
63536;SDS011;49686;51.880;5.632;2023-01-04T15:38:23;12.35;;;2.45;;
63536;SDS011;49686;51.880;5.632;2023-01-04T15:40:50;11.85;;;2.47;;
63536;SDS011;49686;51.880;5.632;2023-01-04T15:43:17;15.52;;;2.25;;
63536;SDS011;49686;51.880;5.632;2023-01-04T15:45:44;10.73;;;1.95;;